sensor_id;sensor_type;location;lat;lon;timestamp;P1;durP1;ratioP1;P2;durP2;ratioP2
77938;SDS011;67136;47.546;21.630;2023-09-08T00:02:55;8.73;;;4.70;;
77938;SDS011;67136;47.546;21.630;2023-09-08T00:05:58;10.57;;;4.53;;
77938;SDS011;67136;47.546;21.630;2023-09-08T00:09:02;9.02;;;4.43;;
77938;SDS011;67136;47.546;21.630;2023-09-08T00:12:05;8.13;;;4.55;;
77938;SDS011;67136;47.546;21.630;2023-09-08T00:15:08;11.45;;;5.35;;
77938;SDS011;67136;47.546;21.630;2023-09-08T00:18:11;7.07;;;4.70;;
77938;SDS011;67136;47.546;21.630;2023-09-08T00:21:14;8.63;;;4.60;;
77938;SDS011;67136;47.546;21.630;2023-09-08T00:24:16;8.88;;;5.47;;
77938;SDS011;67136;47.546;21.630;2023-09-08T00:27:20;7.97;;;5.05;;
77938;SDS011;67136;47.546;21.630;2023-09-08T00:30:22;8.07;;;4.72;;
77938;SDS011;67136;47.546;21.630;2023-09-08T00:33:25;9.02;;;4.80;;
77938;SDS011;67136;47.546;21.630;2023-09-08T00:36:28;8.73;;;5.00;;
77938;SDS011;67136;47.546;21.630;2023-09-08T00:39:30;8.32;;;4.90;;
77938;SDS011;67136;47.546;21.630;2023-09-08T00:42:33;10.80;;;4.82;;
77938;SDS011;67136;47.546;21.630;2023-09-08T00:45:39;8.65;;;4.80;;
77938;SDS011;67136;47.546;21.630;2023-09-08T00:48:44;8.18;;;5.05;;
77938;SDS011;67136;47.546;21.630;2023-09-08T00:51:46;8.93;;;4.97;;
77938;SDS011;67136;47.546;21.630;2023-09-08T00:54:49;7.80;;;4.50;;
77938;SDS011;67136;47.546;21.630;2023-09-08T00:57:52;9.70;;;5.22;;
77938;SDS011;67136;47.546;21.630;2023-09-08T01:00:54;11.38;;;5.07;;
77938;SDS011;67136;47.546;21.630;2023-09-08T01:04:00;10.40;;;4.47;;
77938;SDS011;67136;47.546;21.630;2023-09-08T01:07:03;10.10;;;4.77;;
77938;SDS011;67136;47.546;21.630;2023-09-08T01:10:06;8.13;;;4.62;;
77938;SDS011;67136;47.546;21.630;2023-09-08T01:13:09;7.53;;;4.60;;
77938;SDS011;67136;47.546;21.630;2023-09-08T01:16:11;9.30;;;4.95;;
77938;SDS011;67136;47.546;21.630;2023-09-08T01:19:14;7.90;;;4.65;;
77938;SDS011;67136;47.546;21.630;2023-09-08T01:26:02;8.10;;;4.68;;
77938;SDS011;67136;47.546;21.630;2023-09-08T01:29:10;8.20;;;5.00;;
77938;SDS011;67136;47.546;21.630;2023-09-08T01:32:13;10.60;;;5.05;;
77938;SDS011;67136;47.546;21.630;2023-09-08T01:35:16;10.38;;;4.70;;
77938;SDS011;67136;47.546;21.630;2023-09-08T01:38:20;7.60;;;4.80;;
77938;SDS011;67136;47.546;21.630;2023-09-08T01:41:24;11.23;;;4.93;;
77938;SDS011;67136;47.546;21.630;2023-09-08T01:44:27;7.75;;;4.90;;
77938;SDS011;67136;47.546;21.630;2023-09-08T01:47:29;11.18;;;4.80;;
77938;SDS011;67136;47.546;21.630;2023-09-08T01:50:34;8.75;;;4.97;;
77938;SDS011;67136;47.546;21.630;2023-09-08T01:53:36;8.10;;;4.77;;
77938;SDS011;67136;47.546;21.630;2023-09-08T01:56:39;10.40;;;5.03;;
77938;SDS011;67136;47.546;21.630;2023-09-08T01:59:41;9.43;;;4.47;;
77938;SDS011;67136;47.546;21.630;2023-09-08T02:02:44;6.97;;;4.32;;
77938;SDS011;67136;47.546;21.630;2023-09-08T02:05:47;7.82;;;4.93;;
77938;SDS011;67136;47.546;21.630;2023-09-08T02:08:50;9.53;;;5.00;;
77938;SDS011;67136;47.546;21.630;2023-09-08T02:11:52;8.10;;;5.05;;
77938;SDS011;67136;47.546;21.630;2023-09-08T02:14:55;8.30;;;5.05;;
77938;SDS011;67136;47.546;21.630;2023-09-08T02:17:58;10.10;;;4.82;;
77938;SDS011;67136;47.546;21.630;2023-09-08T02:21:01;7.53;;;4.60;;
77938;SDS011;67136;47.546;21.630;2023-09-08T02:24:04;8.57;;;4.90;;
77938;SDS011;67136;47.546;21.630;2023-09-08T02:27:07;8.25;;;4.82;;
77938;SDS011;67136;47.546;21.630;2023-09-08T02:30:10;9.15;;;4.80;;
77938;SDS011;67136;47.546;21.630;2023-09-08T02:33:13;9.18;;;4.40;;
77938;SDS011;67136;47.546;21.630;2023-09-08T02:36:15;7.80;;;4.55;;
77938;SDS011;67136;47.546;21.630;2023-09-08T02:39:18;6.73;;;4.60;;
77938;SDS011;67136;47.546;21.630;2023-09-08T02:42:21;10.43;;;5.00;;
77938;SDS011;67136;47.546;21.630;2023-09-08T02:45:24;8.93;;;4.95;;
77938;SDS011;67136;47.546;21.630;2023-09-08T02:48:27;8.75;;;4.60;;
77938;SDS011;67136;47.546;21.630;2023-09-08T02:51:30;7.75;;;4.28;;
77938;SDS011;67136;47.546;21.630;2023-09-08T02:54:32;9.20;;;4.77;;
77938;SDS011;67136;47.546;21.630;2023-09-08T02:57:35;9.75;;;4.30;;
77938;SDS011;67136;47.546;21.630;2023-09-08T03:00:37;8.40;;;4.10;;
77938;SDS011;67136;47.546;21.630;2023-09-08T03:03:41;7.95;;;4.78;;
77938;SDS011;67136;47.546;21.630;2023-09-08T03:06:45;10.02;;;4.50;;
77938;SDS011;67136;47.546;21.630;2023-09-08T03:09:47;8.47;;;4.70;;
77938;SDS011;67136;47.546;21.630;2023-09-08T03:12:50;8.48;;;4.68;;
77938;SDS011;67136;47.546;21.630;2023-09-08T03:15:52;9.45;;;4.60;;
77938;SDS011;67136;47.546;21.630;2023-09-08T03:18:55;8.10;;;4.70;;
77938;SDS011;67136;47.546;21.630;2023-09-08T03:21:58;7.18;;;4.30;;
77938;SDS011;67136;47.546;21.630;2023-09-08T03:25:02;7.50;;;4.33;;
77938;SDS011;67136;47.546;21.630;2023-09-08T03:28:06;6.57;;;4.40;;
77938;SDS011;67136;47.546;21.630;2023-09-08T03:31:08;7.22;;;4.30;;
77938;SDS011;67136;47.546;21.630;2023-09-08T03:34:11;7.90;;;4.15;;
77938;SDS011;67136;47.546;21.630;2023-09-08T03:37:15;9.65;;;4.45;;
77938;SDS011;67136;47.546;21.630;2023-09-08T03:40:18;8.73;;;4.33;;
77938;SDS011;67136;47.546;21.630;2023-09-08T03:43:20;9.93;;;4.30;;
77938;SDS011;67136;47.546;21.630;2023-09-08T03:46:23;9.25;;;4.68;;
77938;SDS011;67136;47.546;21.630;2023-09-08T03:49:27;9.13;;;4.75;;
77938;SDS011;67136;47.546;21.630;2023-09-08T03:52:30;9.48;;;5.00;;
77938;SDS011;67136;47.546;21.630;2023-09-08T03:55:33;7.00;;;4.20;;
77938;SDS011;67136;47.546;21.630;2023-09-08T03:58:36;6.68;;;4.32;;
77938;SDS011;67136;47.546;21.630;2023-09-08T04:01:39;7.55;;;4.32;;
77938;SDS011;67136;47.546;21.630;2023-09-08T04:04:41;7.75;;;4.12;;
77938;SDS011;67136;47.546;21.630;2023-09-08T04:07:47;7.40;;;4.68;;
77938;SDS011;67136;47.546;21.630;2023-09-08T04:10:50;7.30;;;4.30;;
77938;SDS011;67136;47.546;21.630;2023-09-08T04:13:53;12.75;;;4.85;;
77938;SDS011;67136;47.546;21.630;2023-09-08T04:16:56;8.57;;;4.50;;
77938;SDS011;67136;47.546;21.630;2023-09-08T04:19:58;10.50;;;4.82;;
77938;SDS011;67136;47.546;21.630;2023-09-08T04:23:01;9.25;;;4.70;;
77938;SDS011;67136;47.546;21.630;2023-09-08T04:26:04;8.90;;;5.10;;
77938;SDS011;67136;47.546;21.630;2023-09-08T04:29:06;11.95;;;4.55;;
77938;SDS011;67136;47.546;21.630;2023-09-08T04:32:09;10.63;;;4.70;;
77938;SDS011;67136;47.546;21.630;2023-09-08T04:35:12;7.25;;;4.35;;
77938;SDS011;67136;47.546;21.630;2023-09-08T04:38:14;9.80;;;4.50;;
77938;SDS011;67136;47.546;21.630;2023-09-08T04:41:18;8.20;;;4.60;;
77938;SDS011;67136;47.546;21.630;2023-09-08T04:44:20;8.30;;;4.82;;
77938;SDS011;67136;47.546;21.630;2023-09-08T04:47:23;7.03;;;4.75;;
77938;SDS011;67136;47.546;21.630;2023-09-08T04:50:26;7.35;;;4.60;;
77938;SDS011;67136;47.546;21.630;2023-09-08T04:53:30;7.10;;;4.50;;
77938;SDS011;67136;47.546;21.630;2023-09-08T04:56:32;9.73;;;4.73;;
77938;SDS011;67136;47.546;21.630;2023-09-08T04:59:35;12.43;;;4.82;;
77938;SDS011;67136;47.546;21.630;2023-09-08T05:02:41;10.68;;;4.90;;
77938;SDS011;67136;47.546;21.630;2023-09-08T05:05:44;11.73;;;4.43;;
77938;SDS011;67136;47.546;21.630;2023-09-08T05:08:47;10.40;;;4.28;;
77938;SDS011;67136;47.546;21.630;2023-09-08T05:11:52;7.33;;;4.40;;
77938;SDS011;67136;47.546;21.630;2023-09-08T05:14:55;8.75;;;4.05;;
77938;SDS011;67136;47.546;21.630;2023-09-08T05:18:02;10.43;;;4.82;;
77938;SDS011;67136;47.546;21.630;2023-09-08T05:21:06;10.75;;;4.53;;
77938;SDS011;67136;47.546;21.630;2023-09-08T05:24:09;10.35;;;4.78;;
77938;SDS011;67136;47.546;21.630;2023-09-08T05:27:12;6.90;;;3.83;;
77938;SDS011;67136;47.546;21.630;2023-09-08T05:30:15;9.43;;;4.30;;
77938;SDS011;67136;47.546;21.630;2023-09-08T05:33:17;11.70;;;4.78;;
77938;SDS011;67136;47.546;21.630;2023-09-08T05:36:21;10.38;;;4.40;;
77938;SDS011;67136;47.546;21.630;2023-09-08T05:39:23;8.45;;;3.92;;
77938;SDS011;67136;47.546;21.630;2023-09-08T05:42:27;14.10;;;4.50;;
77938;SDS011;67136;47.546;21.630;2023-09-08T05:45:33;7.30;;;4.22;;
77938;SDS011;67136;47.546;21.630;2023-09-08T05:48:37;13.10;;;4.30;;
77938;SDS011;67136;47.546;21.630;2023-09-08T05:51:40;8.68;;;4.32;;
77938;SDS011;67136;47.546;21.630;2023-09-08T05:54:43;11.43;;;4.15;;
77938;SDS011;67136;47.546;21.630;2023-09-08T05:57:46;14.70;;;4.60;;
77938;SDS011;67136;47.546;21.630;2023-09-08T06:00:49;9.00;;;4.28;;
77938;SDS011;67136;47.546;21.630;2023-09-08T06:03:51;6.65;;;4.15;;
77938;SDS011;67136;47.546;21.630;2023-09-08T06:06:54;7.12;;;4.50;;
77938;SDS011;67136;47.546;21.630;2023-09-08T06:09:57;7.32;;;4.10;;
77938;SDS011;67136;47.546;21.630;2023-09-08T06:13:00;8.07;;;4.23;;
77938;SDS011;67136;47.546;21.630;2023-09-08T06:16:04;7.25;;;3.97;;
77938;SDS011;67136;47.546;21.630;2023-09-08T06:19:07;10.75;;;4.10;;
77938;SDS011;67136;47.546;21.630;2023-09-08T06:22:09;8.50;;;4.03;;
77938;SDS011;67136;47.546;21.630;2023-09-08T06:25:12;8.23;;;3.65;;
77938;SDS011;67136;47.546;21.630;2023-09-08T06:28:15;8.53;;;4.00;;
77938;SDS011;67136;47.546;21.630;2023-09-08T06:31:19;6.53;;;3.42;;
77938;SDS011;67136;47.546;21.630;2023-09-08T06:34:22;8.18;;;4.18;;
77938;SDS011;67136;47.546;21.630;2023-09-08T06:37:25;7.80;;;4.03;;
77938;SDS011;67136;47.546;21.630;2023-09-08T06:40:29;9.20;;;3.80;;
77938;SDS011;67136;47.546;21.630;2023-09-08T06:43:32;6.57;;;3.47;;
77938;SDS011;67136;47.546;21.630;2023-09-08T06:46:36;8.05;;;3.42;;
77938;SDS011;67136;47.546;21.630;2023-09-08T06:49:39;8.98;;;3.60;;
77938;SDS011;67136;47.546;21.630;2023-09-08T06:52:42;11.95;;;3.67;;
77938;SDS011;67136;47.546;21.630;2023-09-08T06:55:44;5.93;;;3.53;;
77938;SDS011;67136;47.546;21.630;2023-09-08T06:58:48;11.70;;;3.80;;
77938;SDS011;67136;47.546;21.630;2023-09-08T07:01:50;6.43;;;3.45;;
77938;SDS011;67136;47.546;21.630;2023-09-08T07:04:53;5.25;;;3.53;;
77938;SDS011;67136;47.546;21.630;2023-09-08T07:07:56;5.22;;;3.47;;
77938;SDS011;67136;47.546;21.630;2023-09-08T07:10:59;7.62;;;3.70;;
77938;SDS011;67136;47.546;21.630;2023-09-08T07:14:02;6.53;;;3.87;;
77938;SDS011;67136;47.546;21.630;2023-09-08T07:17:05;6.78;;;3.55;;
77938;SDS011;67136;47.546;21.630;2023-09-08T07:20:08;8.65;;;3.53;;
77938;SDS011;67136;47.546;21.630;2023-09-08T07:23:11;5.47;;;3.22;;
77938;SDS011;67136;47.546;21.630;2023-09-08T07:26:14;10.18;;;3.65;;
77938;SDS011;67136;47.546;21.630;2023-09-08T07:29:16;7.63;;;3.33;;
77938;SDS011;67136;47.546;21.630;2023-09-08T07:32:20;5.85;;;3.75;;
77938;SDS011;67136;47.546;21.630;2023-09-08T07:35:23;8.52;;;3.33;;
77938;SDS011;67136;47.546;21.630;2023-09-08T07:38:26;6.65;;;3.58;;
77938;SDS011;67136;47.546;21.630;2023-09-08T07:41:29;6.60;;;3.40;;
77938;SDS011;67136;47.546;21.630;2023-09-08T07:44:32;7.47;;;3.43;;
77938;SDS011;67136;47.546;21.630;2023-09-08T07:47:35;5.60;;;3.65;;
77938;SDS011;67136;47.546;21.630;2023-09-08T07:50:40;5.40;;;3.30;;
77938;SDS011;67136;47.546;21.630;2023-09-08T07:53:43;6.43;;;3.35;;
77938;SDS011;67136;47.546;21.630;2023-09-08T07:56:45;7.35;;;3.37;;
77938;SDS011;67136;47.546;21.630;2023-09-08T07:59:48;12.40;;;3.10;;
77938;SDS011;67136;47.546;21.630;2023-09-08T08:02:52;5.97;;;2.92;;
77938;SDS011;67136;47.546;21.630;2023-09-08T08:05:57;5.30;;;3.00;;
77938;SDS011;67136;47.546;21.630;2023-09-08T08:09:00;4.68;;;3.20;;
77938;SDS011;67136;47.546;21.630;2023-09-08T08:12:04;3.90;;;3.10;;
77938;SDS011;67136;47.546;21.630;2023-09-08T08:15:08;5.40;;;3.50;;
77938;SDS011;67136;47.546;21.630;2023-09-08T08:18:12;7.57;;;3.15;;
77938;SDS011;67136;47.546;21.630;2023-09-08T08:21:15;5.30;;;3.25;;
77938;SDS011;67136;47.546;21.630;2023-09-08T08:24:18;4.68;;;2.97;;
77938;SDS011;67136;47.546;21.630;2023-09-08T08:27:21;4.57;;;3.17;;
77938;SDS011;67136;47.546;21.630;2023-09-08T08:30:24;8.20;;;3.80;;
77938;SDS011;67136;47.546;21.630;2023-09-08T08:33:27;4.60;;;3.00;;
77938;SDS011;67136;47.546;21.630;2023-09-08T08:36:31;7.12;;;3.70;;
77938;SDS011;67136;47.546;21.630;2023-09-08T08:39:34;6.30;;;3.35;;
77938;SDS011;67136;47.546;21.630;2023-09-08T08:42:37;7.47;;;3.22;;
77938;SDS011;67136;47.546;21.630;2023-09-08T08:45:41;6.00;;;3.63;;
77938;SDS011;67136;47.546;21.630;2023-09-08T08:48:45;6.82;;;3.50;;
77938;SDS011;67136;47.546;21.630;2023-09-08T08:51:50;5.18;;;3.25;;
77938;SDS011;67136;47.546;21.630;2023-09-08T08:54:55;5.57;;;3.17;;
77938;SDS011;67136;47.546;21.630;2023-09-08T08:58:04;5.00;;;3.40;;
77938;SDS011;67136;47.546;21.630;2023-09-08T09:01:09;6.67;;;3.20;;
77938;SDS011;67136;47.546;21.630;2023-09-08T09:04:13;6.00;;;3.08;;
77938;SDS011;67136;47.546;21.630;2023-09-08T09:07:18;6.28;;;3.40;;
77938;SDS011;67136;47.546;21.630;2023-09-08T09:10:22;5.20;;;3.30;;
77938;SDS011;67136;47.546;21.630;2023-09-08T09:13:25;7.07;;;3.70;;
77938;SDS011;67136;47.546;21.630;2023-09-08T09:16:27;5.90;;;3.50;;
77938;SDS011;67136;47.546;21.630;2023-09-08T09:19:31;6.95;;;3.37;;
77938;SDS011;67136;47.546;21.630;2023-09-08T09:22:36;7.20;;;3.60;;
77938;SDS011;67136;47.546;21.630;2023-09-08T09:25:39;7.57;;;3.35;;
77938;SDS011;67136;47.546;21.630;2023-09-08T09:28:49;5.35;;;3.40;;
77938;SDS011;67136;47.546;21.630;2023-09-08T09:31:55;7.47;;;3.17;;
77938;SDS011;67136;47.546;21.630;2023-09-08T09:34:59;8.93;;;3.67;;
77938;SDS011;67136;47.546;21.630;2023-09-08T09:38:03;8.50;;;3.50;;
77938;SDS011;67136;47.546;21.630;2023-09-08T09:41:06;6.22;;;3.12;;
77938;SDS011;67136;47.546;21.630;2023-09-08T09:44:09;8.23;;;3.62;;
77938;SDS011;67136;47.546;21.630;2023-09-08T09:47:12;15.63;;;3.40;;
77938;SDS011;67136;47.546;21.630;2023-09-08T09:50:26;6.30;;;3.10;;
77938;SDS011;67136;47.546;21.630;2023-09-08T09:53:33;6.47;;;3.53;;
77938;SDS011;67136;47.546;21.630;2023-09-08T09:56:37;3.72;;;2.87;;
77938;SDS011;67136;47.546;21.630;2023-09-08T09:59:41;6.55;;;3.30;;
77938;SDS011;67136;47.546;21.630;2023-09-08T10:02:44;6.67;;;3.10;;
77938;SDS011;67136;47.546;21.630;2023-09-08T10:05:48;4.85;;;3.30;;
77938;SDS011;67136;47.546;21.630;2023-09-08T10:08:52;7.25;;;3.62;;
77938;SDS011;67136;47.546;21.630;2023-09-08T10:11:59;7.40;;;2.75;;
77938;SDS011;67136;47.546;21.630;2023-09-08T10:15:06;4.05;;;3.22;;
77938;SDS011;67136;47.546;21.630;2023-09-08T10:18:10;4.90;;;3.07;;
77938;SDS011;67136;47.546;21.630;2023-09-08T10:21:17;8.52;;;3.03;;
77938;SDS011;67136;47.546;21.630;2023-09-08T10:24:22;6.95;;;3.60;;
77938;SDS011;67136;47.546;21.630;2023-09-08T10:27:29;5.78;;;3.20;;
77938;SDS011;67136;47.546;21.630;2023-09-08T10:30:34;10.73;;;3.22;;
77938;SDS011;67136;47.546;21.630;2023-09-08T10:33:37;4.57;;;3.03;;
77938;SDS011;67136;47.546;21.630;2023-09-08T10:36:41;6.68;;;3.08;;
77938;SDS011;67136;47.546;21.630;2023-09-08T10:39:43;5.80;;;3.20;;
77938;SDS011;67136;47.546;21.630;2023-09-08T10:42:46;8.13;;;3.05;;
77938;SDS011;67136;47.546;21.630;2023-09-08T10:45:49;6.30;;;3.42;;
77938;SDS011;67136;47.546;21.630;2023-09-08T10:48:53;8.97;;;3.07;;
77938;SDS011;67136;47.546;21.630;2023-09-08T10:52:08;6.07;;;3.12;;
77938;SDS011;67136;47.546;21.630;2023-09-08T10:55:12;6.15;;;3.37;;
77938;SDS011;67136;47.546;21.630;2023-09-08T10:58:32;5.87;;;3.08;;
77938;SDS011;67136;47.546;21.630;2023-09-08T11:01:38;3.83;;;2.95;;
77938;SDS011;67136;47.546;21.630;2023-09-08T11:04:41;5.63;;;2.70;;
77938;SDS011;67136;47.546;21.630;2023-09-08T11:07:44;5.32;;;3.03;;
77938;SDS011;67136;47.546;21.630;2023-09-08T11:10:48;8.57;;;3.00;;
77938;SDS011;67136;47.546;21.630;2023-09-08T11:13:51;5.22;;;3.03;;
77938;SDS011;67136;47.546;21.630;2023-09-08T11:16:53;4.70;;;3.00;;
77938;SDS011;67136;47.546;21.630;2023-09-08T11:19:56;6.43;;;3.40;;
77938;SDS011;67136;47.546;21.630;2023-09-08T11:22:59;8.40;;;2.87;;
77938;SDS011;67136;47.546;21.630;2023-09-08T11:26:02;4.65;;;2.90;;
77938;SDS011;67136;47.546;21.630;2023-09-08T11:29:05;5.40;;;3.12;;
77938;SDS011;67136;47.546;21.630;2023-09-08T11:32:08;3.83;;;2.80;;
77938;SDS011;67136;47.546;21.630;2023-09-08T11:35:12;3.27;;;2.63;;
77938;SDS011;67136;47.546;21.630;2023-09-08T11:38:16;4.22;;;2.97;;
77938;SDS011;67136;47.546;21.630;2023-09-08T11:41:18;4.43;;;2.83;;
77938;SDS011;67136;47.546;21.630;2023-09-08T11:44:25;4.45;;;2.60;;
77938;SDS011;67136;47.546;21.630;2023-09-08T11:47:29;5.03;;;2.90;;
77938;SDS011;67136;47.546;21.630;2023-09-08T11:50:32;4.90;;;2.70;;
77938;SDS011;67136;47.546;21.630;2023-09-08T11:53:35;3.42;;;2.78;;
77938;SDS011;67136;47.546;21.630;2023-09-08T11:56:39;5.85;;;2.85;;
77938;SDS011;67136;47.546;21.630;2023-09-08T11:59:42;3.60;;;3.10;;
77938;SDS011;67136;47.546;21.630;2023-09-08T12:02:49;3.00;;;2.70;;
77938;SDS011;67136;47.546;21.630;2023-09-08T12:05:52;5.77;;;2.97;;
77938;SDS011;67136;47.546;21.630;2023-09-08T12:08:56;6.85;;;2.83;;
77938;SDS011;67136;47.546;21.630;2023-09-08T12:12:05;4.32;;;2.90;;
77938;SDS011;67136;47.546;21.630;2023-09-08T12:18:52;5.87;;;2.70;;
77938;SDS011;67136;47.546;21.630;2023-09-08T12:21:56;5.57;;;2.70;;
77938;SDS011;67136;47.546;21.630;2023-09-08T12:25:01;4.85;;;2.90;;
77938;SDS011;67136;47.546;21.630;2023-09-08T12:28:04;5.28;;;3.00;;
77938;SDS011;67136;47.546;21.630;2023-09-08T12:31:07;7.12;;;2.80;;
77938;SDS011;67136;47.546;21.630;2023-09-08T12:34:10;6.03;;;2.75;;
77938;SDS011;67136;47.546;21.630;2023-09-08T12:37:19;4.03;;;2.80;;
77938;SDS011;67136;47.546;21.630;2023-09-08T12:40:23;5.72;;;2.53;;
77938;SDS011;67136;47.546;21.630;2023-09-08T12:43:27;3.20;;;2.50;;
77938;SDS011;67136;47.546;21.630;2023-09-08T12:46:29;4.93;;;2.90;;
77938;SDS011;67136;47.546;21.630;2023-09-08T12:49:34;4.47;;;2.58;;
77938;SDS011;67136;47.546;21.630;2023-09-08T12:52:37;3.43;;;2.50;;
77938;SDS011;67136;47.546;21.630;2023-09-08T12:55:40;3.62;;;2.62;;
77938;SDS011;67136;47.546;21.630;2023-09-08T12:58:42;4.68;;;3.00;;
77938;SDS011;67136;47.546;21.630;2023-09-08T13:01:45;3.58;;;2.40;;
77938;SDS011;67136;47.546;21.630;2023-09-08T13:04:48;2.97;;;2.35;;
77938;SDS011;67136;47.546;21.630;2023-09-08T13:07:51;6.97;;;2.60;;
77938;SDS011;67136;47.546;21.630;2023-09-08T13:10:53;6.20;;;2.80;;
77938;SDS011;67136;47.546;21.630;2023-09-08T13:13:56;4.12;;;2.60;;
77938;SDS011;67136;47.546;21.630;2023-09-08T13:17:00;4.72;;;2.42;;
77938;SDS011;67136;47.546;21.630;2023-09-08T13:20:02;3.05;;;2.28;;
77938;SDS011;67136;47.546;21.630;2023-09-08T13:23:05;2.90;;;2.37;;
77938;SDS011;67136;47.546;21.630;2023-09-08T13:26:08;6.37;;;2.53;;
77938;SDS011;67136;47.546;21.630;2023-09-08T13:29:10;3.10;;;2.50;;
77938;SDS011;67136;47.546;21.630;2023-09-08T13:32:13;4.15;;;2.53;;
77938;SDS011;67136;47.546;21.630;2023-09-08T13:35:17;4.75;;;2.10;;
77938;SDS011;67136;47.546;21.630;2023-09-08T13:38:20;3.73;;;2.63;;
77938;SDS011;67136;47.546;21.630;2023-09-08T13:41:22;4.28;;;2.60;;
77938;SDS011;67136;47.546;21.630;2023-09-08T13:44:25;4.37;;;2.67;;
77938;SDS011;67136;47.546;21.630;2023-09-08T13:47:27;3.78;;;2.78;;
77938;SDS011;67136;47.546;21.630;2023-09-08T13:50:31;3.15;;;2.35;;
77938;SDS011;67136;47.546;21.630;2023-09-08T13:53:35;3.30;;;2.63;;
77938;SDS011;67136;47.546;21.630;2023-09-08T13:56:57;6.93;;;2.35;;
77938;SDS011;67136;47.546;21.630;2023-09-08T14:00:03;5.12;;;2.65;;
77938;SDS011;67136;47.546;21.630;2023-09-08T14:03:10;3.78;;;2.30;;
77938;SDS011;67136;47.546;21.630;2023-09-08T14:06:16;7.72;;;2.65;;
77938;SDS011;67136;47.546;21.630;2023-09-08T14:09:26;3.67;;;2.60;;
77938;SDS011;67136;47.546;21.630;2023-09-08T14:12:32;3.28;;;2.75;;
77938;SDS011;67136;47.546;21.630;2023-09-08T14:15:37;3.95;;;2.58;;
77938;SDS011;67136;47.546;21.630;2023-09-08T14:18:40;3.25;;;2.30;;
77938;SDS011;67136;47.546;21.630;2023-09-08T14:21:42;3.03;;;2.40;;
77938;SDS011;67136;47.546;21.630;2023-09-08T14:24:45;4.90;;;2.60;;
77938;SDS011;67136;47.546;21.630;2023-09-08T14:27:47;3.15;;;2.25;;
77938;SDS011;67136;47.546;21.630;2023-09-08T14:30:50;2.65;;;2.33;;
77938;SDS011;67136;47.546;21.630;2023-09-08T14:33:53;4.25;;;2.60;;
77938;SDS011;67136;47.546;21.630;2023-09-08T14:36:56;3.20;;;2.53;;
77938;SDS011;67136;47.546;21.630;2023-09-08T14:39:58;3.33;;;2.30;;
77938;SDS011;67136;47.546;21.630;2023-09-08T14:43:01;4.32;;;2.50;;
77938;SDS011;67136;47.546;21.630;2023-09-08T14:46:03;7.28;;;2.70;;
77938;SDS011;67136;47.546;21.630;2023-09-08T14:49:06;3.30;;;2.65;;
77938;SDS011;67136;47.546;21.630;2023-09-08T14:52:09;4.10;;;2.40;;
77938;SDS011;67136;47.546;21.630;2023-09-08T14:55:12;3.67;;;2.60;;
77938;SDS011;67136;47.546;21.630;2023-09-08T14:58:15;4.10;;;2.30;;
77938;SDS011;67136;47.546;21.630;2023-09-08T15:01:18;4.37;;;2.47;;
77938;SDS011;67136;47.546;21.630;2023-09-08T15:04:21;3.60;;;2.17;;
77938;SDS011;67136;47.546;21.630;2023-09-08T15:07:23;6.35;;;2.70;;
77938;SDS011;67136;47.546;21.630;2023-09-08T15:10:26;4.30;;;2.53;;
77938;SDS011;67136;47.546;21.630;2023-09-08T15:13:29;3.50;;;2.45;;
77938;SDS011;67136;47.546;21.630;2023-09-08T15:16:32;5.10;;;2.42;;
77938;SDS011;67136;47.546;21.630;2023-09-08T15:19:35;6.60;;;3.00;;
77938;SDS011;67136;47.546;21.630;2023-09-08T15:22:37;7.12;;;2.70;;
77938;SDS011;67136;47.546;21.630;2023-09-08T15:25:40;5.87;;;2.80;;
77938;SDS011;67136;47.546;21.630;2023-09-08T15:28:42;3.92;;;2.55;;
77938;SDS011;67136;47.546;21.630;2023-09-08T15:31:45;7.20;;;2.80;;
77938;SDS011;67136;47.546;21.630;2023-09-08T15:34:48;4.53;;;2.58;;
77938;SDS011;67136;47.546;21.630;2023-09-08T15:37:52;5.32;;;2.80;;
77938;SDS011;67136;47.546;21.630;2023-09-08T15:44:10;4.60;;;2.67;;
77938;SDS011;67136;47.546;21.630;2023-09-08T15:47:12;4.65;;;2.33;;
77938;SDS011;67136;47.546;21.630;2023-09-08T15:50:15;3.97;;;2.80;;
77938;SDS011;67136;47.546;21.630;2023-09-08T15:53:18;4.30;;;2.78;;
77938;SDS011;67136;47.546;21.630;2023-09-08T15:56:20;4.53;;;2.83;;
77938;SDS011;67136;47.546;21.630;2023-09-08T15:59:23;5.82;;;2.92;;
77938;SDS011;67136;47.546;21.630;2023-09-08T16:02:25;8.45;;;3.25;;
77938;SDS011;67136;47.546;21.630;2023-09-08T16:05:28;5.60;;;2.90;;
77938;SDS011;67136;47.546;21.630;2023-09-08T16:08:30;4.37;;;2.65;;
77938;SDS011;67136;47.546;21.630;2023-09-08T16:11:34;4.37;;;2.33;;
77938;SDS011;67136;47.546;21.630;2023-09-08T16:14:36;4.57;;;2.90;;
77938;SDS011;67136;47.546;21.630;2023-09-08T16:17:39;4.28;;;2.53;;
77938;SDS011;67136;47.546;21.630;2023-09-08T16:20:41;5.72;;;2.50;;
77938;SDS011;67136;47.546;21.630;2023-09-08T16:23:44;11.23;;;2.90;;
77938;SDS011;67136;47.546;21.630;2023-09-08T16:26:47;9.37;;;3.80;;
77938;SDS011;67136;47.546;21.630;2023-09-08T16:29:50;6.60;;;2.87;;
77938;SDS011;67136;47.546;21.630;2023-09-08T16:32:52;7.45;;;3.08;;
77938;SDS011;67136;47.546;21.630;2023-09-08T16:35:55;6.35;;;3.22;;
77938;SDS011;67136;47.546;21.630;2023-09-08T16:38:58;12.25;;;3.30;;
77938;SDS011;67136;47.546;21.630;2023-09-08T16:42:00;6.90;;;2.93;;
77938;SDS011;67136;47.546;21.630;2023-09-08T16:45:03;4.72;;;2.87;;
77938;SDS011;67136;47.546;21.630;2023-09-08T16:48:06;6.18;;;3.65;;
77938;SDS011;67136;47.546;21.630;2023-09-08T16:51:09;10.45;;;3.15;;
77938;SDS011;67136;47.546;21.630;2023-09-08T16:54:11;4.78;;;2.85;;
77938;SDS011;67136;47.546;21.630;2023-09-08T16:57:14;4.03;;;2.80;;
77938;SDS011;67136;47.546;21.630;2023-09-08T17:00:17;7.53;;;3.28;;
77938;SDS011;67136;47.546;21.630;2023-09-08T17:03:20;14.60;;;3.28;;
77938;SDS011;67136;47.546;21.630;2023-09-08T17:06:23;5.37;;;2.65;;
77938;SDS011;67136;47.546;21.630;2023-09-08T17:09:25;10.75;;;3.25;;
77938;SDS011;67136;47.546;21.630;2023-09-08T17:12:30;10.90;;;4.00;;
77938;SDS011;67136;47.546;21.630;2023-09-08T17:15:33;6.70;;;3.00;;
77938;SDS011;67136;47.546;21.630;2023-09-08T17:18:36;7.60;;;3.45;;
77938;SDS011;67136;47.546;21.630;2023-09-08T17:21:38;5.93;;;3.05;;
77938;SDS011;67136;47.546;21.630;2023-09-08T17:24:41;9.82;;;3.40;;
77938;SDS011;67136;47.546;21.630;2023-09-08T17:27:44;6.97;;;3.43;;
77938;SDS011;67136;47.546;21.630;2023-09-08T17:30:46;11.85;;;3.53;;
77938;SDS011;67136;47.546;21.630;2023-09-08T17:33:49;8.50;;;4.37;;
77938;SDS011;67136;47.546;21.630;2023-09-08T17:36:53;11.27;;;3.97;;
77938;SDS011;67136;47.546;21.630;2023-09-08T17:39:58;10.73;;;4.05;;
77938;SDS011;67136;47.546;21.630;2023-09-08T17:43:01;8.77;;;3.90;;
77938;SDS011;67136;47.546;21.630;2023-09-08T17:46:04;7.70;;;3.80;;
77938;SDS011;67136;47.546;21.630;2023-09-08T17:49:07;7.53;;;3.90;;
77938;SDS011;67136;47.546;21.630;2023-09-08T17:52:09;11.63;;;4.20;;
77938;SDS011;67136;47.546;21.630;2023-09-08T17:55:12;13.65;;;4.50;;
77938;SDS011;67136;47.546;21.630;2023-09-08T17:58:15;6.33;;;3.73;;
77938;SDS011;67136;47.546;21.630;2023-09-08T18:01:18;11.18;;;4.10;;
77938;SDS011;67136;47.546;21.630;2023-09-08T18:04:21;7.40;;;4.70;;
77938;SDS011;67136;47.546;21.630;2023-09-08T18:07:24;9.43;;;4.85;;
77938;SDS011;67136;47.546;21.630;2023-09-08T18:10:27;10.13;;;4.70;;
77938;SDS011;67136;47.546;21.630;2023-09-08T18:13:30;8.80;;;4.40;;
77938;SDS011;67136;47.546;21.630;2023-09-08T18:16:33;9.35;;;4.18;;
77938;SDS011;67136;47.546;21.630;2023-09-08T18:19:37;7.95;;;3.62;;